createdAt,value
2018-08-13T00:00:17.466Z,4.00
2018-08-13T00:01:17.470Z,4.00
2018-08-13T00:02:17.436Z,4.00
2018-08-13T00:03:17.421Z,4.00
2018-08-13T00:04:17.510Z,4.00
2018-08-13T00:05:17.394Z,4.00
2018-08-13T00:06:17.383Z,4.00
2018-08-13T00:07:17.371Z,4.00
2018-08-13T00:08:17.355Z,4.00
2018-08-13T00:09:17.339Z,4.00
2018-08-13T00:10:17.329Z,4.00
2018-08-13T00:11:17.320Z,4.00
2018-08-13T00:12:17.299Z,4.00
2018-08-13T00:13:17.288Z,4.00
2018-08-13T00:14:17.273Z,4.00
2018-08-13T00:15:17.266Z,4.00
2018-08-13T00:16:17.244Z,4.00
2018-08-13T00:17:17.234Z,4.00
2018-08-13T00:18:17.216Z,4.00
2018-08-13T00:19:17.202Z,4.00
2018-08-13T00:20:17.325Z,4.00
2018-08-13T00:21:17.174Z,4.00
2018-08-13T00:22:17.165Z,4.00
2018-08-13T00:23:17.222Z,4.00
2018-08-13T00:24:17.145Z,4.00
2018-08-13T00:25:17.122Z,4.00
2018-08-13T00:26:17.112Z,4.00
2018-08-13T00:27:17.096Z,4.00
2018-08-13T00:28:17.082Z,4.00
2018-08-13T00:29:17.086Z,4.00
2018-08-13T00:30:17.054Z,4.00
2018-08-13T00:31:17.040Z,4.00
2018-08-13T00:32:17.030Z,4.00
2018-08-13T00:33:17.017Z,4.00
2018-08-13T00:34:17.008Z,4.00
2018-08-13T00:35:16.983Z,4.00
2018-08-13T00:36:17.047Z,4.00
2018-08-13T00:37:16.967Z,4.00
2018-08-13T00:38:16.954Z,4.00
2018-08-13T00:39:16.932Z,4.00
2018-08-13T00:40:16.919Z,4.00
2018-08-13T00:41:16.905Z,4.00
2018-08-13T00:42:16.891Z,4.00
2018-08-13T00:43:16.874Z,4.00
2018-08-13T00:44:16.864Z,4.00
2018-08-13T00:45:16.851Z,4.00
2018-08-13T00:46:16.836Z,4.00
2018-08-13T00:47:16.869Z,4.00
2018-08-13T00:48:16.810Z,4.00
2018-08-13T00:49:16.793Z,4.00
2018-08-13T00:50:16.781Z,4.00
2018-08-13T00:51:16.773Z,4.00
2018-08-13T00:52:16.766Z,4.00
2018-08-13T00:53:16.738Z,4.00
2018-08-13T00:54:16.729Z,4.00
2018-08-13T00:55:16.722Z,4.00
2018-08-13T00:56:16.699Z,4.00
2018-08-13T00:57:16.687Z,4.00
2018-08-13T00:58:16.674Z,4.00
2018-08-13T00:59:16.657Z,4.00
2018-08-13T01:00:16.657Z,4.00
2018-08-13T01:01:16.631Z,4.00
2018-08-13T01:02:16.618Z,4.00
2018-08-13T01:03:16.722Z,4.00
2018-08-13T01:04:16.591Z,4.00
2018-08-13T01:05:16.584Z,4.00
2018-08-13T01:06:16.596Z,4.00
2018-08-13T01:07:16.550Z,4.00
2018-08-13T01:08:16.538Z,4.00
2018-08-13T01:09:16.522Z,4.00
2018-08-13T01:10:16.505Z,4.00
2018-08-13T01:11:16.499Z,4.00
2018-08-13T01:12:16.479Z,4.00
2018-08-13T01:13:16.466Z,4.00
2018-08-13T01:14:16.453Z,4.00
2018-08-13T01:15:16.438Z,4.00
2018-08-13T01:16:16.426Z,4.00
2018-08-13T01:17:16.411Z,4.00
2018-08-13T01:18:16.397Z,4.00
2018-08-13T01:19:16.459Z,4.00
2018-08-13T01:20:16.370Z,4.00
2018-08-13T01:21:16.364Z,4.00
2018-08-13T01:22:16.444Z,4.00
2018-08-13T01:23:16.336Z,4.00
2018-08-13T01:24:16.316Z,4.00
2018-08-13T01:25:16.299Z,4.00
2018-08-13T01:26:16.289Z,4.00
2018-08-13T01:27:16.275Z,4.00
2018-08-13T01:28:16.262Z,4.00
2018-08-13T01:29:16.246Z,4.00
2018-08-13T01:30:16.231Z,4.00
2018-08-13T01:31:16.218Z,4.00
2018-08-13T01:32:16.205Z,4.00
2018-08-13T01:33:16.191Z,4.00
2018-08-13T01:34:16.175Z,4.00
2018-08-13T01:35:16.165Z,4.00
2018-08-13T01:36:16.148Z,4.00
2018-08-13T01:37:16.135Z,4.00
2018-08-13T01:38:16.119Z,4.00
2018-08-13T01:39:16.108Z,4.00
2018-08-13T01:40:16.095Z,4.00
2018-08-13T01:41:16.117Z,4.00
2018-08-13T01:42:16.064Z,4.00
2018-08-13T01:43:16.141Z,4.00
2018-08-13T01:44:16.044Z,4.00
2018-08-13T01:45:16.024Z,4.00
2018-08-13T01:46:16.170Z,4.00
2018-08-13T01:47:15.993Z,4.00
2018-08-13T01:48:15.992Z,4.00
2018-08-13T01:49:15.967Z,4.00
2018-08-13T01:50:15.953Z,4.00
2018-08-13T01:51:15.944Z,4.00
2018-08-13T01:52:15.925Z,4.00
2018-08-13T01:53:15.918Z,4.00
2018-08-13T01:54:15.902Z,4.00
2018-08-13T01:55:15.884Z,4.00
2018-08-13T01:56:15.868Z,4.00
2018-08-13T01:57:15.857Z,4.00
2018-08-13T01:58:15.843Z,4.00
2018-08-13T01:59:15.830Z,4.00
2018-08-13T02:00:15.814Z,4.00
2018-08-13T02:01:15.858Z,4.00
2018-08-13T02:02:15.791Z,4.00
2018-08-13T02:03:15.776Z,4.00
2018-08-13T02:04:15.768Z,4.00
2018-08-13T02:05:15.749Z,4.00
2018-08-13T02:06:15.740Z,4.00
2018-08-13T02:07:15.717Z,4.00
2018-08-13T02:08:15.713Z,4.00
2018-08-13T02:09:15.692Z,4.00
2018-08-13T02:10:15.676Z,4.00
2018-08-13T02:11:15.664Z,4.00
2018-08-13T02:12:15.652Z,4.00
2018-08-13T02:13:15.635Z,4.00
2018-08-13T02:14:15.631Z,4.00
2018-08-13T02:15:15.614Z,4.00
2018-08-13T02:16:15.594Z,4.00
2018-08-13T02:17:15.581Z,4.00
2018-08-13T02:18:15.564Z,4.00
2018-08-13T02:19:15.549Z,4.00
2018-08-13T02:20:15.539Z,4.00
2018-08-13T02:21:15.674Z,4.00
2018-08-13T02:22:15.510Z,4.00
2018-08-13T02:23:15.499Z,4.00
2018-08-13T02:24:15.479Z,4.00
2018-08-13T02:25:15.470Z,4.00
2018-08-13T02:26:15.590Z,4.00
2018-08-13T02:27:15.442Z,4.00
2018-08-13T02:28:15.429Z,4.00
2018-08-13T02:29:15.507Z,4.00
2018-08-13T02:30:15.399Z,4.00
2018-08-13T02:31:15.384Z,4.00
2018-08-13T02:32:15.370Z,4.00
2018-08-13T02:33:15.353Z,4.00
2018-08-13T02:34:15.342Z,4.00
2018-08-13T02:35:15.325Z,4.00
2018-08-13T02:36:15.320Z,4.00
2018-08-13T02:37:15.297Z,4.00
2018-08-13T02:38:15.289Z,4.00
2018-08-13T02:39:15.399Z,4.00
2018-08-13T02:40:15.258Z,4.00
2018-08-13T02:41:15.246Z,4.00
2018-08-13T02:42:15.230Z,4.00
2018-08-13T02:43:15.221Z,4.00
2018-08-13T02:44:15.200Z,4.00
2018-08-13T02:45:15.190Z,4.00
2018-08-13T02:46:15.171Z,4.00
2018-08-13T02:47:15.164Z,4.00
2018-08-13T02:48:15.146Z,4.00
2018-08-13T02:49:15.131Z,4.00
2018-08-13T02:50:15.117Z,4.00
2018-08-13T02:51:15.104Z,4.00
2018-08-13T02:52:15.089Z,4.00
2018-08-13T02:53:15.073Z,4.00
2018-08-13T02:54:15.063Z,4.00
2018-08-13T02:55:15.046Z,4.00
2018-08-13T02:56:15.037Z,4.00
2018-08-13T02:57:15.019Z,4.00
2018-08-13T02:58:15.067Z,4.00
2018-08-13T02:59:14.998Z,4.00
2018-08-13T03:00:14.980Z,4.00
2018-08-13T03:01:14.966Z,4.00
2018-08-13T03:02:14.949Z,4.00
2018-08-13T03:03:14.937Z,4.00
2018-08-13T03:04:14.983Z,4.00
2018-08-13T03:05:14.906Z,4.00
2018-08-13T03:06:14.889Z,4.00
2018-08-13T03:07:14.942Z,4.00
2018-08-13T03:08:14.862Z,4.00
2018-08-13T03:09:14.847Z,4.00
2018-08-13T03:10:14.835Z,4.00
2018-08-13T03:11:14.825Z,4.00
2018-08-13T03:12:14.814Z,4.00
2018-08-13T03:13:14.793Z,4.00
2018-08-13T03:14:14.785Z,4.00
2018-08-13T03:15:14.776Z,4.00
2018-08-13T03:16:14.749Z,4.00
2018-08-13T03:17:14.740Z,4.00
2018-08-13T03:18:14.720Z,4.00
2018-08-13T03:19:14.713Z,4.00
2018-08-13T03:20:14.692Z,4.00
2018-08-13T03:21:14.676Z,4.00
2018-08-13T03:22:14.692Z,4.00
2018-08-13T03:23:14.657Z,4.00
2018-08-13T03:24:14.636Z,4.00
2018-08-13T03:25:14.620Z,4.00
2018-08-13T03:26:14.605Z,4.00
2018-08-13T03:27:14.600Z,4.00
2018-08-13T03:28:14.634Z,4.00
2018-08-13T03:29:14.562Z,4.00
2018-08-13T03:30:14.568Z,4.00
2018-08-13T03:31:14.536Z,4.00
2018-08-13T03:32:14.523Z,4.00
2018-08-13T03:33:14.507Z,8.00
2018-08-13T03:34:14.500Z,8.00
2018-08-13T03:35:14.484Z,4.00
2018-08-13T03:36:14.467Z,4.00
2018-08-13T03:37:14.451Z,4.00
2018-08-13T03:38:14.436Z,4.00
2018-08-13T03:39:14.421Z,4.00
2018-08-13T03:40:14.411Z,8.00
2018-08-13T03:41:14.392Z,8.00
2018-08-13T03:42:14.382Z,4.00
2018-08-13T03:43:14.370Z,8.00
2018-08-13T03:44:14.353Z,8.00
2018-08-13T03:45:14.335Z,8.00
2018-08-13T03:46:14.323Z,8.00
2018-08-13T03:47:14.420Z,8.00
2018-08-13T03:48:14.298Z,12.00
2018-08-13T03:49:14.285Z,12.00
2018-08-13T03:50:14.288Z,12.00
2018-08-13T03:51:14.250Z,12.00
2018-08-13T03:52:14.249Z,12.00
2018-08-13T03:53:14.223Z,16.00
2018-08-13T03:54:14.208Z,12.00
2018-08-13T03:55:14.193Z,16.00
2018-08-13T03:56:14.179Z,20.00
2018-08-13T03:57:14.164Z,20.00
2018-08-13T03:58:14.155Z,20.00
2018-08-13T03:59:14.141Z,24.00
2018-08-13T04:00:14.121Z,32.00
2018-08-13T04:01:14.119Z,36.00
2018-08-13T04:02:14.091Z,40.00
2018-08-13T04:03:14.086Z,52.00
2018-08-13T04:04:14.075Z,60.00
2018-08-13T04:05:14.047Z,68.00
2018-08-13T04:06:14.039Z,68.00
2018-08-13T04:07:14.019Z,68.00
2018-08-13T04:08:14.007Z,72.00
2018-08-13T04:09:13.991Z,76.00
2018-08-13T04:10:13.978Z,84.00
2018-08-13T04:11:14.020Z,96.00
2018-08-13T04:12:13.961Z,100.00
2018-08-13T04:13:13.936Z,112.00
2018-08-13T04:14:13.921Z,120.00
2018-08-13T04:15:13.907Z,128.00
2018-08-13T04:16:13.892Z,128.00
2018-08-13T04:17:13.877Z,136.00
2018-08-13T04:18:13.866Z,132.00
2018-08-13T04:19:13.847Z,140.00
2018-08-13T04:20:13.838Z,148.00
2018-08-13T04:21:13.819Z,164.00
2018-08-13T04:22:13.806Z,180.00
2018-08-13T04:23:13.790Z,192.00
2018-08-13T04:24:13.776Z,212.00
2018-08-13T04:25:13.763Z,232.00
2018-08-13T04:26:13.746Z,268.00
2018-08-13T04:27:13.730Z,300.00
2018-08-13T04:28:13.720Z,340.00
2018-08-13T04:29:13.704Z,392.00
2018-08-13T04:30:13.797Z,444.00
2018-08-13T04:31:13.675Z,496.00
2018-08-13T04:32:13.665Z,556.00
2018-08-13T04:33:13.645Z,632.00
2018-08-13T04:34:13.635Z,748.00
2018-08-13T04:35:13.616Z,904.00
2018-08-13T04:36:13.604Z,1104.00
2018-08-13T04:37:13.587Z,1328.00
2018-08-13T04:38:13.576Z,1520.00
2018-08-13T04:39:13.558Z,1652.00
2018-08-13T04:40:13.545Z,1720.00
2018-08-13T04:41:13.529Z,1756.00
2018-08-13T04:42:13.516Z,1844.00
2018-08-13T04:43:13.504Z,1956.00
2018-08-13T04:44:13.487Z,2024.00
2018-08-13T04:45:13.475Z,2036.00
2018-08-13T04:46:13.511Z,1948.00
2018-08-13T04:47:13.444Z,1808.00
2018-08-13T04:48:13.434Z,1640.00
2018-08-13T04:49:13.444Z,1516.00
2018-08-13T04:50:13.404Z,1448.00
2018-08-13T04:51:13.388Z,1420.00
2018-08-13T04:52:13.406Z,1448.00
2018-08-13T04:53:13.368Z,1500.00
2018-08-13T04:54:13.343Z,1488.00
2018-08-13T04:55:13.339Z,1356.00
2018-08-13T04:56:13.320Z,1212.00
2018-08-13T04:57:13.353Z,1184.00
2018-08-13T04:58:13.289Z,1244.00
2018-08-13T04:59:13.281Z,1172.00
2018-08-13T05:00:13.262Z,968.00
2018-08-13T05:01:13.248Z,804.00
2018-08-13T05:02:13.233Z,724.00
2018-08-13T05:03:13.226Z,684.00
2018-08-13T05:04:13.203Z,660.00
2018-08-13T05:05:13.193Z,644.00
2018-08-13T05:06:13.184Z,640.00
2018-08-13T05:07:13.183Z,640.00
2018-08-13T05:08:13.147Z,664.00
2018-08-13T05:09:13.131Z,708.00
2018-08-13T05:10:13.161Z,792.00
2018-08-13T05:11:13.109Z,924.00
2018-08-13T05:12:13.093Z,1040.00
2018-08-13T05:13:13.122Z,1140.00
2018-08-13T05:14:13.060Z,1232.00
2018-08-13T05:15:13.046Z,1328.00
2018-08-13T05:16:13.033Z,1444.00
2018-08-13T05:17:13.020Z,1548.00
2018-08-13T05:18:13.006Z,1628.00
2018-08-13T05:19:12.994Z,1652.00
2018-08-13T05:20:12.977Z,1636.00
2018-08-13T05:21:13.018Z,1660.00
2018-08-13T05:22:12.953Z,1744.00
2018-08-13T05:23:12.937Z,1876.00
2018-08-13T05:24:12.919Z,2012.00
2018-08-13T05:25:12.905Z,2164.00
2018-08-13T05:26:12.902Z,2312.00
2018-08-13T05:27:12.880Z,2448.00
2018-08-13T05:28:12.866Z,2612.00
2018-08-13T05:29:13.017Z,2768.00
2018-08-13T05:30:12.867Z,2872.00
2018-08-13T05:31:12.827Z,2900.00
2018-08-13T05:32:12.809Z,2884.00
2018-08-13T05:33:12.800Z,2852.00
2018-08-13T05:34:12.789Z,2808.00
2018-08-13T05:35:12.770Z,2780.00
2018-08-13T05:36:12.754Z,2740.00
2018-08-13T05:37:12.738Z,2660.00
2018-08-13T05:38:12.763Z,2560.00
2018-08-13T05:39:12.718Z,2476.00
2018-08-13T05:40:12.698Z,2400.00
2018-08-13T05:41:12.680Z,2372.00
2018-08-13T05:42:12.669Z,2348.00
2018-08-13T05:43:12.653Z,2356.00
2018-08-13T05:44:12.647Z,2364.00
2018-08-13T05:45:12.637Z,2360.00
2018-08-13T05:46:12.612Z,2356.00
2018-08-13T05:47:12.600Z,2388.00
2018-08-13T05:48:12.585Z,2464.00
2018-08-13T05:49:12.577Z,2604.00
2018-08-13T05:50:12.564Z,2792.00
2018-08-13T05:51:12.549Z,2988.00
2018-08-13T05:52:12.530Z,3148.00
2018-08-13T05:53:12.606Z,3232.00
2018-08-13T05:54:12.500Z,3284.00
2018-08-13T05:55:12.489Z,3304.00
2018-08-13T05:56:12.486Z,3288.00
2018-08-13T05:57:12.461Z,3236.00
2018-08-13T05:58:12.456Z,3132.00
2018-08-13T05:59:12.435Z,3016.00
2018-08-13T06:00:12.426Z,2908.00
2018-08-13T06:01:12.405Z,2824.00
2018-08-13T06:02:12.391Z,2752.00
2018-08-13T06:03:12.542Z,2692.00
2018-08-13T06:04:12.365Z,2648.00
2018-08-13T06:05:12.368Z,2672.00
2018-08-13T06:06:12.336Z,2776.00
2018-08-13T06:07:12.325Z,2968.00
2018-08-13T06:08:12.314Z,3204.00
2018-08-13T06:09:12.295Z,3420.00
2018-08-13T06:10:12.284Z,3544.00
2018-08-13T06:11:12.292Z,3576.00
2018-08-13T06:12:12.267Z,3516.00
2018-08-13T06:13:12.244Z,3400.00
2018-08-13T06:14:12.235Z,3264.00
2018-08-13T06:15:12.237Z,3136.00
2018-08-13T06:16:12.204Z,3032.00
2018-08-13T06:17:12.187Z,2972.00
2018-08-13T06:18:12.267Z,2960.00
2018-08-13T06:19:12.160Z,2992.00
2018-08-13T06:20:12.147Z,3072.00
2018-08-13T06:21:12.131Z,3148.00
2018-08-13T06:22:12.118Z,3292.00
2018-08-13T06:23:12.112Z,3484.00
2018-08-13T06:24:12.098Z,3720.00
2018-08-13T06:25:12.089Z,4020.00
2018-08-13T06:26:12.073Z,4352.00
2018-08-13T06:27:12.051Z,4732.00
2018-08-13T06:28:12.219Z,5240.00
2018-08-13T06:29:12.024Z,5932.00
2018-08-13T06:30:12.084Z,6744.00
2018-08-13T06:31:12.022Z,7584.00
2018-08-13T06:32:11.985Z,8232.00
2018-08-13T06:33:11.980Z,8568.00
2018-08-13T06:34:11.957Z,8656.00
2018-08-13T06:35:11.942Z,8464.00
2018-08-13T06:36:11.960Z,7948.00
2018-08-13T06:37:11.950Z,6924.00
2018-08-13T06:38:11.903Z,5552.00
2018-08-13T06:39:11.943Z,4324.00
2018-08-13T06:40:11.876Z,3544.00
2018-08-13T06:41:11.862Z,3164.00
2018-08-13T06:42:11.851Z,3004.00
2018-08-13T06:43:11.836Z,2984.00
2018-08-13T06:44:11.825Z,3264.00
2018-08-13T06:45:11.810Z,3860.00
2018-08-13T06:46:11.795Z,4372.00
2018-08-13T06:47:11.846Z,4840.00
2018-08-13T06:48:11.770Z,5252.00
2018-08-13T06:49:11.770Z,5532.00
2018-08-13T06:50:11.749Z,5752.00
2018-08-13T06:51:11.729Z,6036.00
2018-08-13T06:52:11.720Z,6360.00
2018-08-13T06:53:11.704Z,6608.00
2018-08-13T06:54:11.697Z,6944.00
2018-08-13T06:55:11.695Z,7324.00
2018-08-13T06:56:11.668Z,7676.00
2018-08-13T06:57:11.649Z,7676.00
2018-08-13T06:58:11.638Z,7384.00
2018-08-13T06:59:11.623Z,6832.00
2018-08-13T07:00:11.614Z,6188.00
2018-08-13T07:01:11.599Z,5580.00
2018-08-13T07:02:11.584Z,5048.00
2018-08-13T07:03:11.572Z,4604.00
2018-08-13T07:04:11.559Z,4372.00
2018-08-13T07:05:11.548Z,4480.00
2018-08-13T07:06:11.586Z,4800.00
2018-08-13T07:07:11.517Z,5540.00
2018-08-13T07:08:11.513Z,7116.00
2018-08-13T07:09:11.501Z,9308.00
2018-08-13T07:10:11.480Z,11072.00
2018-08-13T07:11:11.601Z,11592.00
2018-08-13T07:12:11.454Z,10796.00
2018-08-13T07:13:11.438Z,9608.00
2018-08-13T07:14:11.498Z,8576.00
2018-08-13T07:15:11.425Z,8108.00
2018-08-13T07:16:11.417Z,7736.00
2018-08-13T07:17:11.387Z,7324.00
2018-08-13T07:18:11.386Z,6660.00
2018-08-13T07:19:11.361Z,5876.00
2018-08-13T07:20:11.349Z,5256.00
2018-08-13T07:21:11.336Z,4740.00
2018-08-13T07:22:11.363Z,4444.00
2018-08-13T07:23:11.308Z,4120.00
2018-08-13T07:24:11.297Z,3812.00
2018-08-13T07:25:11.325Z,3572.00
2018-08-13T07:26:11.268Z,3552.00
2018-08-13T07:27:11.257Z,3720.00
2018-08-13T07:28:11.276Z,3932.00
2018-08-13T07:29:11.239Z,4196.00
2018-08-13T07:30:11.219Z,4380.00
2018-08-13T07:31:11.222Z,4568.00
2018-08-13T07:32:11.195Z,4760.00
2018-08-13T07:33:11.176Z,4976.00
2018-08-13T07:34:11.165Z,5116.00
2018-08-13T07:35:11.161Z,5156.00
2018-08-13T07:36:11.143Z,5152.00
2018-08-13T07:37:11.124Z,5168.00
2018-08-13T07:38:11.260Z,5188.00
2018-08-13T07:39:11.138Z,5204.00
2018-08-13T07:40:11.096Z,5200.00
2018-08-13T07:41:11.083Z,5224.00
2018-08-13T07:42:11.078Z,5260.00
2018-08-13T07:43:11.048Z,5268.00
2018-08-13T07:44:11.034Z,5196.00
2018-08-13T07:45:11.019Z,5052.00
2018-08-13T07:46:11.011Z,4992.00
2018-08-13T07:47:10.994Z,5012.00
2018-08-13T07:48:10.980Z,5212.00
2018-08-13T07:49:10.967Z,5448.00
2018-08-13T07:50:10.953Z,5608.00
2018-08-13T07:51:10.952Z,5628.00
2018-08-13T07:52:10.926Z,5624.00
2018-08-13T07:53:10.913Z,5676.00
2018-08-13T07:54:10.998Z,5872.00
2018-08-13T07:55:10.887Z,6344.00
2018-08-13T07:56:10.873Z,7104.00
2018-08-13T07:57:10.874Z,8216.00
2018-08-13T07:58:10.849Z,9628.00
2018-08-13T07:59:10.845Z,11044.00
2018-08-13T08:00:10.827Z,12156.00
2018-08-13T08:01:10.807Z,13092.00
2018-08-13T08:02:10.795Z,14064.00
2018-08-13T08:03:10.786Z,15032.00
2018-08-13T08:04:10.766Z,16180.00
2018-08-13T08:05:10.754Z,17280.00
2018-08-13T08:06:10.745Z,17824.00
2018-08-13T08:07:10.730Z,18272.00
2018-08-13T08:08:10.717Z,18464.00
2018-08-13T08:09:10.736Z,18944.00
2018-08-13T08:15:51.204Z,16504.00
2018-08-13T08:16:51.194Z,16896.00
2018-08-13T08:17:51.175Z,16896.00
2018-08-13T08:18:51.176Z,15668.00
2018-08-13T08:19:51.157Z,15404.00
2018-08-13T08:20:51.148Z,15056.00
2018-08-13T08:21:51.122Z,14364.00
2018-08-13T08:22:51.118Z,14176.00
2018-08-13T08:23:51.098Z,14284.00
2018-08-13T08:24:51.237Z,14548.00
2018-08-13T08:25:51.077Z,14912.00
2018-08-13T08:26:51.059Z,15052.00
2018-08-13T08:27:51.109Z,15116.00
2018-08-13T08:28:51.041Z,15064.00
2018-08-13T08:29:51.021Z,14920.00
2018-08-13T08:30:51.009Z,14792.00
2018-08-13T08:31:50.997Z,14700.00
2018-08-13T08:32:50.985Z,14588.00
2018-08-13T08:33:50.979Z,14436.00
2018-08-13T08:34:50.989Z,13768.00
2018-08-13T08:35:50.954Z,12708.00
2018-08-13T08:36:50.933Z,11712.00
2018-08-13T08:37:50.928Z,10996.00
2018-08-13T08:38:50.908Z,11096.00
2018-08-13T08:39:50.901Z,12264.00
2018-08-13T08:40:51.097Z,13392.00
2018-08-13T08:41:50.873Z,13036.00
2018-08-13T08:42:50.862Z,11352.00
2018-08-13T08:43:50.856Z,9700.00
2018-08-13T08:44:50.834Z,8476.00
2018-08-13T08:45:50.881Z,7724.00
2018-08-13T08:46:50.809Z,7140.00
2018-08-13T08:47:50.796Z,6560.00
2018-08-13T08:48:50.785Z,6196.00
2018-08-13T08:49:50.769Z,6208.00
2018-08-13T08:50:50.756Z,6808.00
2018-08-13T08:51:50.743Z,7800.00
2018-08-13T08:52:50.741Z,8260.00
2018-08-13T08:53:50.726Z,7872.00
2018-08-13T08:54:50.706Z,7388.00
2018-08-13T08:55:50.701Z,7100.00
2018-08-13T08:56:50.691Z,7372.00
2018-08-13T08:57:50.669Z,8084.00
2018-08-13T08:58:50.658Z,9244.00
2018-08-13T08:59:50.651Z,10300.00
2018-08-13T09:00:50.628Z,11056.00
2018-08-13T09:01:50.664Z,11484.00
2018-08-13T09:02:50.605Z,11276.00
2018-08-13T09:03:50.592Z,10164.00
2018-08-13T09:04:50.583Z,9228.00
2018-08-13T09:05:50.600Z,9220.00
2018-08-13T09:06:50.555Z,9536.00
2018-08-13T09:07:50.542Z,9816.00
2018-08-13T09:08:50.531Z,10116.00
2018-08-13T09:09:50.521Z,10252.00
2018-08-13T09:10:50.504Z,10364.00
2018-08-13T09:11:50.497Z,10504.00
2018-08-13T09:12:50.482Z,10740.00
2018-08-13T09:13:50.466Z,11192.00
2018-08-13T09:14:50.453Z,11936.00
2018-08-13T09:15:50.446Z,12292.00
2018-08-13T09:16:50.431Z,12012.00
2018-08-13T09:17:50.500Z,11016.00
2018-08-13T09:18:50.450Z,9824.00
2018-08-13T09:19:50.391Z,8584.00
2018-08-13T09:20:50.386Z,7668.00
2018-08-13T09:21:50.365Z,7560.00
2018-08-13T09:22:50.353Z,8348.00
2018-08-13T09:23:50.340Z,9672.00
2018-08-13T09:24:50.330Z,11004.00
2018-08-13T09:25:50.315Z,11800.00
2018-08-13T09:26:50.319Z,11652.00
2018-08-13T09:27:50.292Z,11016.00
2018-08-13T09:28:50.288Z,10512.00
2018-08-13T09:29:50.265Z,10656.00
2018-08-13T09:30:50.250Z,10680.00
2018-08-13T09:31:50.239Z,9756.00
2018-08-13T09:32:50.230Z,8720.00
2018-08-13T09:33:50.215Z,8384.00
2018-08-13T09:34:50.199Z,9020.00
2018-08-13T09:35:50.189Z,9872.00
2018-08-13T09:36:50.236Z,10424.00
2018-08-13T09:37:50.169Z,10816.00
2018-08-13T09:38:50.158Z,10960.00
2018-08-13T09:39:50.248Z,10620.00
2018-08-13T09:40:50.128Z,9900.00
2018-08-13T09:41:50.112Z,9416.00
2018-08-13T09:42:50.099Z,9580.00
2018-08-13T09:43:50.103Z,10044.00
2018-08-13T09:44:50.082Z,10504.00
2018-08-13T09:45:50.063Z,10500.00
2018-08-13T09:46:50.050Z,10136.00
2018-08-13T09:47:50.045Z,9740.00
2018-08-13T09:48:50.023Z,9344.00
2018-08-13T09:49:50.011Z,8776.00
2018-08-13T09:50:50.009Z,8044.00
2018-08-13T09:51:49.989Z,7520.00
2018-08-13T09:52:49.978Z,7280.00
2018-08-13T09:53:50.020Z,7760.00
2018-08-13T09:54:49.947Z,9356.00
2018-08-13T09:55:49.936Z,11688.00
2018-08-13T09:56:49.922Z,13840.00
2018-08-13T09:57:49.917Z,13772.00
2018-08-13T09:58:49.899Z,14268.00
2018-08-13T09:59:49.884Z,14964.00
2018-08-13T10:00:49.909Z,15700.00
2018-08-13T10:01:49.860Z,16120.00
2018-08-13T10:02:49.847Z,17408.00
2018-08-13T10:03:49.839Z,18688.00
2018-08-13T10:04:49.831Z,21152.00
2018-08-13T10:05:49.811Z,42720.00
2018-08-13T10:06:49.798Z,69248.00
2018-08-13T10:07:49.791Z,83488.00
2018-08-13T10:08:49.783Z,33760.00
2018-08-13T10:09:49.761Z,33408.00
2018-08-13T10:10:49.814Z,31168.00
2018-08-13T10:11:49.742Z,28672.00
2018-08-13T10:12:49.732Z,33536.00
2018-08-13T10:13:49.724Z,41440.00
2018-08-13T10:14:49.708Z,43968.00
2018-08-13T10:15:49.705Z,137344.00
2018-08-13T10:16:49.782Z,35776.00
2018-08-13T10:17:49.691Z,89120.00
2018-08-13T10:18:49.669Z,57440.00
2018-08-13T10:19:49.706Z,81760.00
2018-08-13T10:20:49.653Z,129440.00
2018-08-13T10:21:49.638Z,129728.00
2018-08-13T10:22:49.637Z,130112.00
2018-08-13T10:23:49.624Z,33504.00
2018-08-13T10:24:49.613Z,27232.00
2018-08-13T10:25:49.609Z,103968.00
2018-08-13T10:26:49.603Z,99648.00
2018-08-13T10:27:49.797Z,62016.00
2018-08-13T10:28:49.586Z,95744.00
2018-08-13T10:29:49.667Z,40416.00
2018-08-13T10:30:49.580Z,73856.00
2018-08-13T10:31:49.573Z,126720.00
2018-08-13T10:32:49.565Z,113120.00
2018-08-13T10:33:49.562Z,114784.00
2018-08-13T10:34:49.559Z,41792.00
2018-08-13T10:35:49.561Z,34144.00
2018-08-13T10:36:49.550Z,38304.00
2018-08-13T10:37:49.740Z,112480.00
2018-08-13T10:38:49.552Z,118912.00
2018-08-13T10:39:49.539Z,115840.00
2018-08-13T10:40:49.543Z,115040.00
2018-08-13T10:41:49.534Z,111968.00
2018-08-13T10:42:49.536Z,113632.00
2018-08-13T10:43:49.532Z,40288.00
2018-08-13T10:44:49.634Z,113792.00
2018-08-13T10:45:49.530Z,110080.00
2018-08-13T10:46:49.534Z,109632.00
2018-08-13T10:47:49.525Z,108704.00
2018-08-13T10:48:49.533Z,110912.00
2018-08-13T10:49:49.527Z,109920.00
2018-08-13T10:50:49.590Z,108000.00
2018-08-13T10:51:49.525Z,111424.00
2018-08-13T10:52:49.523Z,83104.00
2018-08-13T10:53:49.632Z,114176.00
2018-08-13T10:54:49.525Z,51712.00
2018-08-13T10:55:49.528Z,43168.00
2018-08-13T10:56:49.530Z,23584.00
2018-08-13T10:57:49.528Z,80960.00
2018-08-13T10:58:49.530Z,73536.00
2018-08-13T10:59:49.539Z,67456.00
2018-08-13T11:00:49.531Z,40032.00
2018-08-13T11:01:49.530Z,49920.00
2018-08-13T11:02:49.575Z,32864.00
2018-08-13T11:03:49.734Z,56384.00
2018-08-13T11:04:49.529Z,36832.00
2018-08-13T11:05:49.528Z,56064.00
2018-08-13T11:06:49.528Z,99552.00
2018-08-13T11:07:49.525Z,50400.00
2018-08-13T11:08:49.527Z,18272.00
2018-08-13T11:09:49.534Z,17888.00
2018-08-13T11:10:49.523Z,52064.00
2018-08-13T11:11:49.520Z,75168.00
2018-08-13T11:12:49.517Z,98496.00
2018-08-13T11:13:49.522Z,40672.00
2018-08-13T11:14:49.512Z,32256.00
2018-08-13T11:15:49.510Z,26464.00
2018-08-13T11:16:49.513Z,20480.00
2018-08-13T11:17:49.510Z,20352.00
2018-08-13T11:18:49.501Z,27904.00
2018-08-13T11:19:49.517Z,71872.00
2018-08-13T11:20:49.504Z,38048.00
2018-08-13T11:21:49.501Z,59168.00
2018-08-13T11:22:49.499Z,23200.00
2018-08-13T11:23:49.494Z,20192.00
2018-08-13T11:24:49.481Z,19456.00
2018-08-13T11:25:49.485Z,24256.00
2018-08-13T11:26:49.481Z,20928.00
2018-08-13T11:27:49.473Z,28608.00
2018-08-13T11:28:49.468Z,33728.00
2018-08-13T11:29:49.466Z,48096.00
2018-08-13T11:30:49.459Z,94944.00
2018-08-13T11:31:49.451Z,104352.00
2018-08-13T11:32:49.448Z,99648.00
2018-08-13T11:33:49.446Z,90368.00
2018-08-13T11:34:49.587Z,36800.00
2018-08-13T11:35:49.435Z,28672.00
2018-08-13T11:36:49.433Z,27136.00
2018-08-13T11:37:49.493Z,33472.00
2018-08-13T11:38:49.426Z,49824.00
2018-08-13T11:39:49.420Z,21600.00
2018-08-13T11:40:49.422Z,27264.00
2018-08-13T11:41:49.413Z,108192.00
2018-08-13T11:42:49.410Z,30976.00
2018-08-13T11:43:49.416Z,29856.00
2018-08-13T11:44:49.404Z,26656.00
2018-08-13T11:45:49.396Z,54176.00
2018-08-13T11:46:49.394Z,80928.00
2018-08-13T11:47:49.388Z,48960.00
2018-08-13T11:48:49.387Z,87488.00
2018-08-13T11:49:49.388Z,87424.00
2018-08-13T11:50:49.526Z,74720.00
2018-08-13T11:51:49.377Z,73216.00
2018-08-13T11:52:49.371Z,41152.00
2018-08-13T11:53:49.404Z,76064.00
2018-08-13T11:54:49.359Z,39328.00
2018-08-13T11:55:49.363Z,28736.00
2018-08-13T11:56:49.356Z,48832.00
2018-08-13T11:57:49.355Z,29728.00
2018-08-13T11:58:49.355Z,27776.00
2018-08-13T11:59:49.349Z,27488.00
2018-08-13T12:00:49.340Z,29920.00
2018-08-13T12:01:49.333Z,23680.00
2018-08-13T12:02:49.333Z,24352.00
2018-08-13T12:03:49.369Z,21824.00
2018-08-13T12:04:49.325Z,19456.00
2018-08-13T12:05:49.316Z,17984.00
2018-08-13T12:06:49.567Z,17856.00
2018-08-13T12:07:49.302Z,17600.00
2018-08-13T12:08:49.306Z,18240.00
2018-08-13T12:09:49.292Z,17568.00
2018-08-13T12:10:49.283Z,14980.00
2018-08-13T12:11:49.286Z,12292.00
2018-08-13T12:12:49.274Z,12636.00
2018-08-13T12:13:49.272Z,15000.00
2018-08-13T12:14:49.271Z,14692.00
2018-08-13T12:15:49.267Z,15016.00
2018-08-13T12:16:49.245Z,19264.00
2018-08-13T12:17:49.246Z,18688.00
2018-08-13T12:18:49.239Z,15964.00
2018-08-13T12:19:49.244Z,16588.00
2018-08-13T12:20:49.223Z,19104.00
2018-08-13T12:21:49.229Z,22880.00
2018-08-13T12:22:49.209Z,23680.00
2018-08-13T12:23:49.209Z,24384.00
2018-08-13T12:24:49.228Z,23904.00
2018-08-13T12:25:49.186Z,19744.00
2018-08-13T12:26:49.182Z,16720.00